createdAt,value
2022-08-03T00:01:01.621Z,7.07
2022-08-03T00:03:28.536Z,11.05
2022-08-03T00:06:02.658Z,6.27
2022-08-03T00:08:40.145Z,10.38
2022-08-03T00:11:07.437Z,7.72
2022-08-03T00:13:49.876Z,8.43
2022-08-03T00:16:16.824Z,6.70
2022-08-03T00:18:43.827Z,9.93
2022-08-03T00:21:10.788Z,9.20
2022-08-03T00:23:51.159Z,8.48
2022-08-03T00:29:09.599Z,4.32
2022-08-03T00:34:16.886Z,8.68
2022-08-03T00:36:54.134Z,7.78
2022-08-03T00:39:41.092Z,9.77
2022-08-03T00:42:10.937Z,7.72
2022-08-03T00:44:55.724Z,8.97
2022-08-03T00:47:22.755Z,6.78
2022-08-03T00:49:50.513Z,6.32
2022-08-03T00:52:17.539Z,9.68
2022-08-03T00:54:47.072Z,8.07
2022-08-03T00:57:13.892Z,10.30
2022-08-03T00:59:40.860Z,7.90
2022-08-03T01:02:08.839Z,13.30
2022-08-03T01:04:35.729Z,16.88
2022-08-03T01:07:25.524Z,6.60
2022-08-03T01:10:11.157Z,11.00
2022-08-03T01:13:59.203Z,7.78
2022-08-03T01:16:37.048Z,8.70
2022-08-03T01:22:56.363Z,13.90
2022-08-03T01:25:44.530Z,12.50
2022-08-03T01:28:39.425Z,7.93
2022-08-03T01:31:09.648Z,8.60
2022-08-03T01:33:53.290Z,9.15
2022-08-03T01:36:40.741Z,7.85
2022-08-03T01:39:21.789Z,10.00
2022-08-03T01:41:53.446Z,12.77
2022-08-03T01:44:31.348Z,18.90
2022-08-03T01:47:00.545Z,14.68
2022-08-03T01:54:55.563Z,16.88
2022-08-03T01:58:04.794Z,8.90
2022-08-03T02:00:41.484Z,14.38
2022-08-03T02:03:15.810Z,12.30
2022-08-03T02:06:17.942Z,10.10
2022-08-03T02:09:14.672Z,12.63
2022-08-03T02:11:55.398Z,12.18
2022-08-03T02:14:31.895Z,11.80
2022-08-03T02:16:59.350Z,14.02
2022-08-03T02:19:38.149Z,13.53
2022-08-03T02:22:18.311Z,11.45
2022-08-03T02:24:53.625Z,10.93
2022-08-03T02:27:26.940Z,8.75
2022-08-03T02:32:42.538Z,14.63
2022-08-03T02:35:26.818Z,13.57
2022-08-03T02:40:51.215Z,13.38
2022-08-03T02:43:21.502Z,13.52
2022-08-03T02:45:54.729Z,11.73
2022-08-03T02:51:20.561Z,9.35
2022-08-03T02:53:54.567Z,12.00
2022-08-03T02:56:28.580Z,16.20
2022-08-03T02:58:59.638Z,14.03
2022-08-03T03:01:31.000Z,11.30
2022-08-03T03:04:01.758Z,11.30
2022-08-03T03:06:29.229Z,13.20
2022-08-03T03:09:10.139Z,9.35
2022-08-03T03:11:44.819Z,7.73
2022-08-03T03:14:12.400Z,10.27
2022-08-03T03:16:45.129Z,12.55
2022-08-03T03:22:11.601Z,16.80
2022-08-03T03:24:42.728Z,14.97
2022-08-03T03:27:22.613Z,21.38
2022-08-03T03:30:05.805Z,9.48
2022-08-03T03:32:41.965Z,13.32
2022-08-03T03:35:09.783Z,15.82
2022-08-03T03:37:36.606Z,12.93
2022-08-03T03:40:03.767Z,12.82
2022-08-03T03:42:30.826Z,11.05
2022-08-03T03:44:57.783Z,18.10
2022-08-03T03:47:32.427Z,14.68
2022-08-03T03:49:59.838Z,13.67
2022-08-03T03:52:26.824Z,14.90
2022-08-03T03:54:56.379Z,15.95
2022-08-03T03:57:27.677Z,13.52
2022-08-03T04:00:10.805Z,13.35
2022-08-03T04:02:47.247Z,16.60
2022-08-03T04:05:15.230Z,9.23
2022-08-03T04:08:02.051Z,12.88
2022-08-03T04:10:31.932Z,14.70
2022-08-03T04:13:00.994Z,10.55
2022-08-03T04:15:41.254Z,19.80
2022-08-03T04:18:24.640Z,14.18
2022-08-03T04:20:53.195Z,13.15
2022-08-03T04:23:24.489Z,10.98
2022-08-03T04:26:08.385Z,15.70
2022-08-03T04:28:41.638Z,13.07
2022-08-03T04:31:15.839Z,15.95
2022-08-03T04:36:32.962Z,15.77
2022-08-03T04:39:22.462Z,21.73
2022-08-03T04:42:14.987Z,19.50
2022-08-03T04:47:33.735Z,16.90
2022-08-03T04:50:09.158Z,13.48
2022-08-03T04:52:48.396Z,20.23
2022-08-03T04:55:29.004Z,14.87
2022-08-03T04:58:16.186Z,14.77
2022-08-03T05:00:43.401Z,14.40
2022-08-03T05:06:17.088Z,15.73
2022-08-03T05:09:04.918Z,17.63
2022-08-03T05:11:34.423Z,14.98
2022-08-03T05:14:02.525Z,15.55
2022-08-03T05:16:41.683Z,21.15
2022-08-03T05:19:08.983Z,12.65
2022-08-03T05:21:52.222Z,12.77
2022-08-03T05:24:25.911Z,14.32
2022-08-03T05:26:52.779Z,15.95
2022-08-03T05:29:19.857Z,12.65
2022-08-03T05:31:56.322Z,17.48
2022-08-03T05:34:23.428Z,15.30
2022-08-03T05:36:50.446Z,11.52
2022-08-03T05:39:17.152Z,23.70
2022-08-03T05:41:46.974Z,16.48
2022-08-03T05:44:17.267Z,20.95
2022-08-03T05:46:44.506Z,15.40
2022-08-03T05:49:11.426Z,19.17
2022-08-03T05:51:38.434Z,18.73
2022-08-03T05:54:05.507Z,12.75
2022-08-03T05:56:33.936Z,14.50
2022-08-03T05:59:16.515Z,15.63
2022-08-03T06:01:52.038Z,16.33
2022-08-03T06:04:20.607Z,18.52
2022-08-03T06:06:54.234Z,17.15
2022-08-03T06:10:35.550Z,20.98
2022-08-03T06:14:53.407Z,19.08
2022-08-03T06:20:27.461Z,16.65
2022-08-03T06:23:00.342Z,15.48
2022-08-03T06:25:47.096Z,13.83
2022-08-03T06:31:23.551Z,20.33
2022-08-03T06:34:32.099Z,16.05
2022-08-03T06:37:02.566Z,11.93
2022-08-03T06:39:29.360Z,14.70
2022-08-03T06:42:11.927Z,15.20
2022-08-03T06:44:39.688Z,17.50
2022-08-03T06:47:06.792Z,15.15
2022-08-03T06:50:16.539Z,14.60
2022-08-03T06:52:38.072Z,11.03
2022-08-03T06:55:09.425Z,21.20
2022-08-03T06:58:00.032Z,12.10
2022-08-03T07:06:17.337Z,20.60
2022-08-03T07:14:24.121Z,15.23
2022-08-03T07:16:54.575Z,17.05
2022-08-03T07:19:33.718Z,17.30
2022-08-03T07:22:04.383Z,21.42
2022-08-03T07:24:42.634Z,16.23
2022-08-03T07:27:12.982Z,19.67
2022-08-03T07:29:39.674Z,22.88
2022-08-03T07:32:06.673Z,18.03
2022-08-03T07:34:37.666Z,18.67
2022-08-03T07:37:05.015Z,16.98
2022-08-03T07:39:36.516Z,14.13
2022-08-03T07:42:03.459Z,20.85
2022-08-03T07:44:36.909Z,13.57
2022-08-03T07:47:23.577Z,17.30
2022-08-03T07:49:55.629Z,15.43
2022-08-03T07:52:34.095Z,19.40
2022-08-03T07:55:32.108Z,17.88
2022-08-03T07:58:11.083Z,10.93
2022-08-03T08:00:47.660Z,23.02
2022-08-03T08:03:14.554Z,18.60
2022-08-03T08:05:44.546Z,17.75
2022-08-03T08:11:29.962Z,17.60
2022-08-03T08:14:18.578Z,18.73
2022-08-03T08:19:51.232Z,18.95
2022-08-03T08:22:24.793Z,15.13
2022-08-03T08:25:11.761Z,13.30
2022-08-03T08:28:22.170Z,22.15
2022-08-03T08:30:55.170Z,16.60
2022-08-03T08:33:47.862Z,18.58
2022-08-03T08:36:34.187Z,18.38
2022-08-03T08:39:05.148Z,17.77
2022-08-03T08:41:34.974Z,22.88
2022-08-03T08:44:05.804Z,22.05
2022-08-03T08:46:33.412Z,18.13
2022-08-03T08:49:09.351Z,31.30
2022-08-03T08:51:59.774Z,22.73
2022-08-03T08:54:42.233Z,22.98
2022-08-03T08:57:26.779Z,20.35
2022-08-03T08:59:57.529Z,18.45
2022-08-03T09:02:25.205Z,20.00
2022-08-03T09:04:53.181Z,24.67
2022-08-03T09:07:32.240Z,19.27
2022-08-03T09:10:12.049Z,22.17
2022-08-03T09:12:47.391Z,25.52
2022-08-03T09:15:22.096Z,22.05
2022-08-03T09:17:51.210Z,19.83
2022-08-03T09:20:29.798Z,20.25
2022-08-03T09:23:26.306Z,23.15
2022-08-03T09:26:40.607Z,23.17
2022-08-03T09:29:14.906Z,21.67
2022-08-03T09:31:45.548Z,15.63
2022-08-03T09:34:20.246Z,23.50
2022-08-03T09:36:59.085Z,15.60
2022-08-03T09:39:42.034Z,21.13
2022-08-03T09:42:15.534Z,22.33
2022-08-03T09:45:35.373Z,18.97
2022-08-03T09:48:26.242Z,19.33
2022-08-03T09:51:13.397Z,19.50
2022-08-03T09:56:57.644Z,12.98
2022-08-03T13:18:32.845Z,12.82
2022-08-03T13:21:00.558Z,9.47
2022-08-03T13:23:39.785Z,11.55
2022-08-03T13:26:20.479Z,11.15
2022-08-03T13:29:02.711Z,8.60
2022-08-03T13:31:53.208Z,11.27
2022-08-03T13:37:38.007Z,10.60
2022-08-03T13:42:54.938Z,8.60
2022-08-03T13:45:21.714Z,12.82
2022-08-03T13:48:06.502Z,9.07
2022-08-03T13:50:42.924Z,8.45
2022-08-03T13:53:11.194Z,6.97
2022-08-03T13:55:38.026Z,6.03
2022-08-03T13:58:07.565Z,7.90
2022-08-03T14:00:34.838Z,7.30
2022-08-03T14:03:24.990Z,10.55
2022-08-03T14:08:33.957Z,9.15
2022-08-03T14:11:13.335Z,7.70
2022-08-03T14:13:47.959Z,6.73
2022-08-03T14:16:26.381Z,10.48
2022-08-03T14:19:02.143Z,7.18
2022-08-03T14:21:44.559Z,10.93
2022-08-03T14:24:23.732Z,9.23
2022-08-03T14:27:05.927Z,6.70
2022-08-03T14:29:38.694Z,8.10
2022-08-03T14:32:11.621Z,7.90
2022-08-03T14:34:40.128Z,8.82
2022-08-03T14:37:07.184Z,7.47
2022-08-03T14:42:51.294Z,3.95
2022-08-03T14:45:30.302Z,8.32
2022-08-03T14:50:30.061Z,9.32
2022-08-03T14:50:50.193Z,4.78
2022-08-03T14:53:20.721Z,11.13
2022-08-03T14:55:55.927Z,9.07
2022-08-03T14:58:24.172Z,9.20
2022-08-03T15:00:52.681Z,7.72
2022-08-03T15:03:31.833Z,11.00
2022-08-03T15:06:01.732Z,8.33
2022-08-03T15:09:22.627Z,6.60
2022-08-03T15:11:48.236Z,4.90
2022-08-03T15:14:28.354Z,8.45
2022-08-03T15:17:01.923Z,9.80
2022-08-03T15:20:01.133Z,4.83
2022-08-03T15:22:34.702Z,8.82
2022-08-03T15:26:03.630Z,5.72
2022-08-03T15:28:03.425Z,7.30
2022-08-03T15:31:01.605Z,6.25
2022-08-03T15:33:43.243Z,6.37
2022-08-03T15:36:30.595Z,4.78
2022-08-03T15:38:57.419Z,5.00
2022-08-03T16:14:13.095Z,6.83
2022-08-03T16:19:20.579Z,13.13
2022-08-03T16:21:56.444Z,11.85
2022-08-03T16:24:31.142Z,5.00
2022-08-03T16:27:00.965Z,11.50
2022-08-03T16:32:52.909Z,9.27
2022-08-03T16:35:25.233Z,7.53
2022-08-03T16:37:56.442Z,7.85
2022-08-03T16:40:51.920Z,10.93
2022-08-03T16:46:01.531Z,12.80
2022-08-03T16:48:31.306Z,8.05
2022-08-03T16:50:58.019Z,10.23
2022-08-03T16:56:10.177Z,7.78
2022-08-03T16:58:41.344Z,15.18
2022-08-03T17:01:29.225Z,7.53
2022-08-03T17:04:04.604Z,6.05
2022-08-03T17:06:51.392Z,8.80
2022-08-03T17:09:18.306Z,5.53
2022-08-03T17:11:56.966Z,8.75
2022-08-03T17:14:23.692Z,7.55
2022-08-03T17:19:59.644Z,8.13
2022-08-03T17:22:41.942Z,10.65
2022-08-03T17:25:22.160Z,9.05
2022-08-03T17:28:48.359Z,5.53
2022-08-03T17:31:23.524Z,9.57
2022-08-03T17:34:14.488Z,11.90
2022-08-03T17:37:03.792Z,6.30
2022-08-03T17:49:01.913Z,8.80
2022-08-03T20:15:09.349Z,7.80
2022-08-03T20:18:27.859Z,10.10
2022-08-03T20:24:36.803Z,5.63
2022-08-03T20:27:18.385Z,6.72
2022-08-03T20:38:15.378Z,5.35
2022-08-03T20:44:25.752Z,14.47
2022-08-03T20:50:25.332Z,8.15
2022-08-03T20:53:15.294Z,7.45
2022-08-03T20:59:24.875Z,7.10
2022-08-03T21:02:19.741Z,5.10
2022-08-03T21:10:54.442Z,5.75
2022-08-03T21:14:03.358Z,7.77
2022-08-03T21:16:45.502Z,8.23
2022-08-03T21:19:22.232Z,6.38
2022-08-03T21:22:31.811Z,11.05
2022-08-03T21:28:27.549Z,6.23
2022-08-03T21:31:07.818Z,8.48
2022-08-03T21:33:41.315Z,10.63
2022-08-03T21:36:17.632Z,11.63
2022-08-03T21:38:47.555Z,10.27
2022-08-03T21:41:27.667Z,11.20
2022-08-03T21:44:01.634Z,11.30
2022-08-03T21:46:53.463Z,9.98
2022-08-03T21:50:05.504Z,9.05
2022-08-03T22:01:55.414Z,6.88
2022-08-03T22:04:55.177Z,10.02
2022-08-03T22:07:53.216Z,7.63
2022-08-03T22:10:24.816Z,8.87
2022-08-03T22:13:13.294Z,8.07
2022-08-03T22:15:53.040Z,7.43
2022-08-03T22:18:56.646Z,7.43
2022-08-03T22:24:31.911Z,6.50
2022-08-03T22:27:23.073Z,6.28
2022-08-03T22:36:00.471Z,8.60
2022-08-03T22:38:36.143Z,5.77
2022-08-03T22:43:55.700Z,9.20
2022-08-03T22:46:28.341Z,8.25
2022-08-03T22:52:02.841Z,5.80
2022-08-03T23:16:28.737Z,7.50
2022-08-03T23:22:29.529Z,5.88
2022-08-03T23:28:36.331Z,7.70
2022-08-03T23:31:08.293Z,5.97
2022-08-03T23:33:43.299Z,9.30
2022-08-03T23:36:30.736Z,5.90
2022-08-03T23:39:00.806Z,8.50
2022-08-03T23:41:32.013Z,4.20
2022-08-03T23:44:12.496Z,6.95
2022-08-03T23:46:53.330Z,8.77
2022-08-03T23:59:32.666Z,11.50
